Time;durP1;ratioP1;P1;durP2;ratioP2;P2;SDS_P1;SDS_P2;PMS_P1;PMS_P2;Temp;Humidity;BMP_temperature;BMP_pressure;BME280_temperature;BME280_humidity;BME280_pressure;Samples;Min_cycle;Max_cycle;Signal;HPM_P1;HPM_P2
2023/09/08 00:01:46;;;;;;;30.85;7.32;;;;;;;;;;4946900;28;20233;-80
2023/09/08 00:04:14;;;;;;;23.27;4.93;;;;;;;;;;4973859;28;20245;-80
2023/09/08 00:06:41;;;;;;;31.40;8.10;;;;;;;;;;4969154;28;20251;-80
2023/09/08 00:09:08;;;;;;;17.10;4.20;;;;;;;;;;4963171;28;20236;-80
2023/09/08 00:11:34;;;;;;;26.38;6.85;;;;;;;;;;4963003;28;20241;-79
2023/09/08 00:14:01;;;;;;;17.98;3.83;;;;;;;;;;4980466;28;20322;-80
2023/09/08 00:16:29;;;;;;;23.83;4.45;;;;;;;;;;4974721;28;20239;-80
2023/09/08 00:18:59;;;;;;;20.45;4.38;;;;;;;;;;4969302;28;20229;-80
2023/09/08 00:21:26;;;;;;;19.30;3.97;;;;;;;;;;4975192;28;20234;-80
2023/09/08 00:23:53;;;;;;;13.77;3.20;;;;;;;;;;4975330;28;20249;-80
2023/09/08 00:26:20;;;;;;;18.63;3.92;;;;;;;;;;4977654;28;20236;-80
2023/09/08 00:28:47;;;;;;;32.92;8.07;;;;;;;;;;4974998;28;20236;-79
2023/09/08 00:31:13;;;;;;;16.70;3.65;;;;;;;;;;4984250;28;20283;-80
2023/09/08 00:33:40;;;;;;;46.38;10.43;;;;;;;;;;4973632;28;20240;-80
2023/09/08 00:36:07;;;;;;;19.33;4.30;;;;;;;;;;4980235;28;20233;-80
2023/09/08 00:38:34;;;;;;;31.35;8.70;;;;;;;;;;4980637;28;20220;-80
2023/09/08 00:41:01;;;;;;;11.45;2.97;;;;;;;;;;4969900;28;20240;-79
2023/09/08 00:43:27;;;;;;;26.73;6.30;;;;;;;;;;4963605;28;20615;-80
2023/09/08 00:45:55;;;;;;;14.77;3.38;;;;;;;;;;4977378;28;20695;-80
2023/09/08 00:48:22;;;;;;;24.88;5.22;;;;;;;;;;4981112;28;20295;-80
2023/09/08 00:50:48;;;;;;;35.97;8.18;;;;;;;;;;4971422;28;20229;-79
2023/09/08 00:53:15;;;;;;;25.70;5.85;;;;;;;;;;4971356;28;20244;-79
2023/09/08 00:55:42;;;;;;;39.35;9.77;;;;;;;;;;4965904;28;20774;-79
2023/09/08 00:58:08;;;;;;;13.32;3.45;;;;;;;;;;4977602;28;20228;-79
2023/09/08 01:00:35;;;;;;;27.88;7.38;;;;;;;;;;4970911;28;20778;-79
2023/09/08 01:03:02;;;;;;;13.68;3.28;;;;;;;;;;4978296;28;20232;-79
2023/09/08 01:05:29;;;;;;;24.08;5.35;;;;;;;;;;4976290;28;20706;-81
2023/09/08 01:07:56;;;;;;;12.80;2.90;;;;;;;;;;4980159;28;20676;-79
2023/09/08 01:10:23;;;;;;;18.27;3.92;;;;;;;;;;4976908;28;20224;-80
2023/09/08 01:12:50;;;;;;;16.58;3.95;;;;;;;;;;4975366;28;20246;-79
2023/09/08 01:15:17;;;;;;;18.63;4.25;;;;;;;;;;4972490;28;20300;-79
2023/09/08 01:17:43;;;;;;;30.13;7.72;;;;;;;;;;4974982;28;20236;-80
2023/09/08 01:20:17;;;;;;;14.23;3.35;;;;;;;;;;4976499;28;20231;-81
2023/09/08 01:23:02;;;;;;;29.15;7.32;;;;;;;;;;4961335;28;20228;-79
2023/09/08 01:25:29;;;;;;;20.85;4.78;;;;;;;;;;4970480;28;20240;-79
2023/09/08 01:27:58;;;;;;;23.98;5.07;;;;;;;;;;4972647;28;20252;-79
2023/09/08 01:30:26;;;;;;;16.90;3.95;;;;;;;;;;4967988;28;20228;-80
2023/09/08 01:32:54;;;;;;;16.08;4.45;;;;;;;;;;4971482;28;20233;-80
2023/09/08 01:35:21;;;;;;;24.70;5.05;;;;;;;;;;4980189;28;20781;-80
2023/09/08 01:37:48;;;;;;;37.63;8.98;;;;;;;;;;4969895;28;20237;-79
2023/09/08 01:40:15;;;;;;;18.52;4.18;;;;;;;;;;4971110;28;20240;-81
2023/09/08 01:42:42;;;;;;;24.73;6.97;;;;;;;;;;4970759;28;20224;-79
2023/09/08 01:45:08;;;;;;;17.20;3.80;;;;;;;;;;4971640;28;20243;-79
2023/09/08 01:47:35;;;;;;;27.70;7.53;;;;;;;;;;4967669;28;20228;-79
2023/09/08 01:50:02;;;;;;;20.55;4.90;;;;;;;;;;4975613;28;20247;-79
2023/09/08 01:52:28;;;;;;;20.58;4.70;;;;;;;;;;4964275;28;20240;-78
2023/09/08 01:54:55;;;;;;;11.40;2.55;;;;;;;;;;4977383;28;20232;-79
2023/09/08 01:57:22;;;;;;;17.88;4.00;;;;;;;;;;4980849;28;20287;-79
2023/09/08 01:59:48;;;;;;;29.17;7.45;;;;;;;;;;4972169;28;20236;-79
2023/09/08 02:02:15;;;;;;;28.40;6.15;;;;;;;;;;4976280;28;20242;-79
2023/09/08 02:04:41;;;;;;;34.50;9.18;;;;;;;;;;4979035;28;20244;-79
2023/09/08 02:07:08;;;;;;;20.92;4.90;;;;;;;;;;4978714;28;20232;-79
2023/09/08 02:09:36;;;;;;;36.45;8.80;;;;;;;;;;4974578;28;20225;-79
2023/09/08 02:12:03;;;;;;;13.02;2.92;;;;;;;;;;4978827;28;20228;-79
2023/09/08 02:14:30;;;;;;;13.50;2.97;;;;;;;;;;4961911;28;20290;-80
2023/09/08 02:16:57;;;;;;;18.60;4.40;;;;;;;;;;4979216;28;20224;-79
2023/09/08 02:19:23;;;;;;;23.08;5.05;;;;;;;;;;4970623;28;20241;-80
2023/09/08 02:21:50;;;;;;;14.43;3.30;;;;;;;;;;4965672;28;20236;-79
2023/09/08 02:24:17;;;;;;;17.42;3.95;;;;;;;;;;4969231;28;20236;-79
2023/09/08 02:26:43;;;;;;;33.65;8.70;;;;;;;;;;4976447;28;20242;-79
2023/09/08 02:29:10;;;;;;;9.85;2.47;;;;;;;;;;4968979;28;20230;-81
2023/09/08 02:31:37;;;;;;;36.35;8.60;;;;;;;;;;4962995;28;20232;-79
2023/09/08 02:34:04;;;;;;;18.48;4.13;;;;;;;;;;4966023;28;20317;-79
2023/09/08 02:36:30;;;;;;;16.58;3.70;;;;;;;;;;4973779;28;20248;-79
2023/09/08 02:38:57;;;;;;;13.27;3.03;;;;;;;;;;4974591;28;20215;-80
2023/09/08 02:41:24;;;;;;;17.65;4.53;;;;;;;;;;4964986;28;20232;-79
2023/09/08 02:43:50;;;;;;;12.85;3.08;;;;;;;;;;4974131;28;20248;-79
2023/09/08 02:46:17;;;;;;;19.40;4.50;;;;;;;;;;4969115;28;20352;-79
2023/09/08 02:48:43;;;;;;;33.67;8.90;;;;;;;;;;4974649;28;20290;-79
2023/09/08 02:51:12;;;;;;;12.50;3.25;;;;;;;;;;4973431;28;20247;-80
2023/09/08 02:53:38;;;;;;;33.15;8.95;;;;;;;;;;4965913;28;20244;-79
2023/09/08 02:56:09;;;;;;;17.45;4.13;;;;;;;;;;4971367;28;20253;-79
2023/09/08 02:58:35;;;;;;;30.38;8.30;;;;;;;;;;4974033;28;20319;-79
2023/09/08 03:01:14;;;;;;;14.32;3.38;;;;;;;;;;4980177;28;20618;-79
2023/09/08 03:03:43;;;;;;;25.23;6.97;;;;;;;;;;4967901;28;20254;-79
2023/09/08 03:06:11;;;;;;;18.30;4.25;;;;;;;;;;4979579;28;20315;-81
2023/09/08 03:08:37;;;;;;;33.67;8.75;;;;;;;;;;4956208;28;20724;-79
2023/09/08 03:11:05;;;;;;;12.85;3.22;;;;;;;;;;4974953;28;20231;-79
2023/09/08 03:13:33;;;;;;;34.15;7.70;;;;;;;;;;4968573;28;20240;-80
2023/09/08 03:16:07;;;;;;;15.10;3.88;;;;;;;;;;4977749;28;20228;-79
2023/09/08 03:18:33;;;;;;;27.77;6.82;;;;;;;;;;4967142;28;20237;-79
2023/09/08 03:21:03;;;;;;;15.52;3.72;;;;;;;;;;4981130;28;20232;-79
2023/09/08 03:23:29;;;;;;;16.73;3.80;;;;;;;;;;4959033;28;20257;-81
2023/09/08 03:25:56;;;;;;;13.25;3.45;;;;;;;;;;4969724;28;20239;-79
2023/09/08 03:28:22;;;;;;;18.45;4.15;;;;;;;;;;4980810;28;20239;-79
2023/09/08 03:30:49;;;;;;;18.55;4.85;;;;;;;;;;4958145;28;20395;-79
2023/09/08 03:33:16;;;;;;;16.27;3.72;;;;;;;;;;4976515;28;20276;-80
2023/09/08 03:35:43;;;;;;;26.25;6.68;;;;;;;;;;4962751;28;20243;-79
2023/09/08 03:38:09;;;;;;;14.20;3.53;;;;;;;;;;4974392;28;20237;-80
2023/09/08 03:40:36;;;;;;;26.42;7.43;;;;;;;;;;4977819;28;20228;-79
2023/09/08 03:43:03;;;;;;;14.25;3.10;;;;;;;;;;4978788;28;20243;-79
2023/09/08 03:45:29;;;;;;;18.20;4.45;;;;;;;;;;4967421;28;20326;-81
2023/09/08 03:47:56;;;;;;;16.05;3.53;;;;;;;;;;4974065;28;20232;-79
2023/09/08 03:50:22;;;;;;;20.63;4.60;;;;;;;;;;4978088;28;20307;-79
2023/09/08 03:52:50;;;;;;;18.75;4.18;;;;;;;;;;4974795;28;20295;-79
2023/09/08 03:55:16;;;;;;;17.70;4.20;;;;;;;;;;4979186;28;20290;-79
2023/09/08 03:57:43;;;;;;;29.02;7.15;;;;;;;;;;4975611;28;20237;-78
2023/09/08 04:00:10;;;;;;;16.17;3.78;;;;;;;;;;4982193;28;20233;-79
2023/09/08 04:02:37;;;;;;;35.88;9.05;;;;;;;;;;4973322;28;20235;-79
2023/09/08 04:05:04;;;;;;;15.88;3.78;;;;;;;;;;4965739;28;20241;-79
2023/09/08 04:07:30;;;;;;;16.23;4.13;;;;;;;;;;4974143;28;20268;-80
2023/09/08 04:09:57;;;;;;;15.23;3.65;;;;;;;;;;4974572;28;20228;-79
2023/09/08 04:12:23;;;;;;;27.90;6.30;;;;;;;;;;4972535;28;20255;-80
2023/09/08 04:14:50;;;;;;;14.50;3.47;;;;;;;;;;4969746;28;20256;-79
2023/09/08 04:17:17;;;;;;;18.85;4.07;;;;;;;;;;4976378;28;20610;-79
2023/09/08 04:19:44;;;;;;;31.15;8.10;;;;;;;;;;4973767;28;20311;-79
2023/09/08 04:22:10;;;;;;;17.27;3.90;;;;;;;;;;4983396;28;20236;-79
2023/09/08 04:24:37;;;;;;;32.17;8.35;;;;;;;;;;4979541;28;20659;-79
2023/09/08 04:27:04;;;;;;;15.25;3.42;;;;;;;;;;4977854;28;20703;-80
2023/09/08 04:29:30;;;;;;;17.30;4.40;;;;;;;;;;4970649;28;20236;-80
2023/09/08 04:31:57;;;;;;;14.88;4.13;;;;;;;;;;4982590;28;20232;-79
2023/09/08 04:34:23;;;;;;;15.38;4.05;;;;;;;;;;4972586;28;20229;-80
2023/09/08 04:36:50;;;;;;;17.58;4.47;;;;;;;;;;4968813;28;20240;-79
2023/09/08 04:39:17;;;;;;;21.75;5.75;;;;;;;;;;4980022;28;20244;-79
2023/09/08 04:41:43;;;;;;;29.40;8.02;;;;;;;;;;4973422;28;20240;-79
2023/09/08 04:44:10;;;;;;;16.35;3.58;;;;;;;;;;4971428;28;20236;-79
2023/09/08 04:46:37;;;;;;;34.92;8.57;;;;;;;;;;4977196;28;20224;-80
2023/09/08 04:49:03;;;;;;;16.20;3.53;;;;;;;;;;4979718;28;20311;-79
2023/09/08 04:51:30;;;;;;;26.50;6.05;;;;;;;;;;4972210;28;20233;-87
2023/09/08 04:53:56;;;;;;;17.98;4.03;;;;;;;;;;4978651;28;20302;-79
2023/09/08 04:56:23;;;;;;;21.13;4.47;;;;;;;;;;4980627;28;20251;-83
2023/09/08 04:58:49;;;;;;;15.10;3.35;;;;;;;;;;4973902;28;20241;-78
2023/09/08 05:01:16;;;;;;;14.45;3.35;;;;;;;;;;4962916;28;20248;-80
2023/09/08 05:03:43;;;;;;;31.50;7.93;;;;;;;;;;4969992;28;20240;-82
2023/09/08 05:06:09;;;;;;;16.80;4.03;;;;;;;;;;4977717;28;20327;-79
2023/09/08 05:08:36;;;;;;;26.90;7.10;;;;;;;;;;4963580;28;20235;-80
2023/09/08 05:11:03;;;;;;;17.55;4.05;;;;;;;;;;4976595;28;20629;-79
2023/09/08 05:13:30;;;;;;;28.98;6.50;;;;;;;;;;4976399;28;20236;-86
2023/09/08 05:16:00;;;;;;;12.63;3.60;;;;;;;;;;4968104;28;20233;-79
2023/09/08 05:18:27;;;;;;;16.90;4.43;;;;;;;;;;4977879;28;20228;-80
2023/09/08 05:20:53;;;;;;;19.58;4.53;;;;;;;;;;4960627;28;20260;-79
2023/09/08 05:23:20;;;;;;;23.60;5.63;;;;;;;;;;4978153;28;20252;-78
2023/09/08 05:25:47;;;;;;;29.42;8.05;;;;;;;;;;4989796;28;20699;-80
2023/09/08 05:28:13;;;;;;;14.60;3.20;;;;;;;;;;4982656;28;20240;-78
2023/09/08 05:30:40;;;;;;;30.48;8.15;;;;;;;;;;4958113;28;20240;-78
2023/09/08 05:33:07;;;;;;;15.00;3.55;;;;;;;;;;4971108;28;20307;-80
2023/09/08 05:35:34;;;;;;;23.63;5.63;;;;;;;;;;4972645;28;20243;-80
2023/09/08 05:38:00;;;;;;;14.20;3.38;;;;;;;;;;4985319;28;20240;-78
2023/09/08 05:40:27;;;;;;;16.52;3.90;;;;;;;;;;4976364;28;20236;-81
2023/09/08 05:42:54;;;;;;;15.43;3.55;;;;;;;;;;4965241;28;20236;-80
2023/09/08 05:45:21;;;;;;;19.17;4.13;;;;;;;;;;4962356;28;20334;-79
2023/09/08 05:47:49;;;;;;;21.17;5.50;;;;;;;;;;4983941;28;20239;-80
2023/09/08 05:50:15;;;;;;;21.33;4.63;;;;;;;;;;4974789;28;20268;-80
2023/09/08 05:52:42;;;;;;;30.33;8.63;;;;;;;;;;4970774;28;20237;-79
2023/09/08 05:55:09;;;;;;;16.90;3.80;;;;;;;;;;4978584;28;20244;-79
2023/09/08 05:57:36;;;;;;;30.63;8.88;;;;;;;;;;4978443;28;20236;-80
2023/09/08 06:00:03;;;;;;;10.85;2.47;;;;;;;;;;4978145;28;20228;-79
2023/09/08 06:02:30;;;;;;;19.52;4.55;;;;;;;;;;4972334;28;20240;-85
2023/09/08 06:04:57;;;;;;;14.05;3.33;;;;;;;;;;4973976;28;20252;-80
2023/09/08 06:07:23;;;;;;;15.25;3.38;;;;;;;;;;4975966;28;20303;-80
2023/09/08 06:09:50;;;;;;;12.40;3.45;;;;;;;;;;4968076;28;20351;-80
2023/09/08 06:12:16;;;;;;;20.77;4.80;;;;;;;;;;4969984;28;20249;-80
2023/09/08 06:14:43;;;;;;;37.25;9.13;;;;;;;;;;4974191;28;20271;-79
2023/09/08 06:17:10;;;;;;;11.15;3.75;;;;;;;;;;4982053;28;20235;-78
2023/09/08 06:19:36;;;;;;;28.77;7.50;;;;;;;;;;4972730;28;20221;-79
2023/09/08 06:22:03;;;;;;;14.27;3.83;;;;;;;;;;4971744;28;20576;-78
2023/09/08 06:24:29;;;;;;;18.70;6.45;;;;;;;;;;4981671;28;20328;-85
2023/09/08 06:26:56;;;;;;;13.80;3.13;;;;;;;;;;4984011;28;20228;-80
2023/09/08 06:29:23;;;;;;;12.82;3.42;;;;;;;;;;4961212;28;20236;-79
2023/09/08 06:31:49;;;;;;;11.75;3.17;;;;;;;;;;4969667;28;20355;-79
2023/09/08 06:34:16;;;;;;;17.38;3.20;;;;;;;;;;4968605;28;20228;-79
2023/09/08 06:36:43;;;;;;;27.75;8.07;;;;;;;;;;4969348;28;20233;-79
2023/09/08 06:39:09;;;;;;;15.63;3.58;;;;;;;;;;4981735;28;20256;-79
2023/09/08 06:41:36;;;;;;;33.45;8.85;;;;;;;;;;4978618;28;20224;-83
2023/09/08 06:44:02;;;;;;;14.85;3.60;;;;;;;;;;4973786;28;20279;-80
2023/09/08 06:46:29;;;;;;;24.88;6.28;;;;;;;;;;4975721;28;20237;-79
2023/09/08 06:48:56;;;;;;;14.40;3.45;;;;;;;;;;4974049;28;20267;-80
2023/09/08 06:51:22;;;;;;;17.25;4.28;;;;;;;;;;4973527;28;20247;-80
2023/09/08 06:53:54;;;;;;;21.30;6.32;;;;;;;;;;4978370;28;20240;-82
2023/09/08 06:56:21;;;;;;;20.98;4.63;;;;;;;;;;4979076;28;20244;-83
2023/09/08 06:58:47;;;;;;;36.55;8.85;;;;;;;;;;4971646;28;20236;-81
2023/09/08 07:01:15;;;;;;;14.93;3.75;;;;;;;;;;4970318;28;20237;-82
2023/09/08 07:03:42;;;;;;;40.00;10.48;;;;;;;;;;4965496;28;20235;-81
2023/09/08 07:06:09;;;;;;;16.52;4.40;;;;;;;;;;4971076;28;20783;-82
2023/09/08 07:08:36;;;;;;;37.97;9.85;;;;;;;;;;4974941;28;20264;-82
2023/09/08 07:11:03;;;;;;;55.35;12.18;;;;;;;;;;4977477;28;20248;-81
2023/09/08 07:13:29;;;;;;;21.48;5.88;;;;;;;;;;4971078;28;20628;-82
2023/09/08 07:15:56;;;;;;;18.90;4.22;;;;;;;;;;4967425;28;20735;-81
2023/09/08 07:18:23;;;;;;;23.73;5.40;;;;;;;;;;4962324;28;20271;-80
2023/09/08 07:20:50;;;;;;;52.97;8.95;;;;;;;;;;4975267;28;20292;-81
2023/09/08 07:23:18;;;;;;;18.90;4.80;;;;;;;;;;4969491;28;20240;-81
2023/09/08 07:25:45;;;;;;;45.45;9.73;;;;;;;;;;4944724;28;20244;-81
2023/09/08 07:28:12;;;;;;;16.13;4.22;;;;;;;;;;4973767;28;20232;-82
2023/09/08 07:30:38;;;;;;;46.53;8.65;;;;;;;;;;4966357;28;20224;-82
2023/09/08 07:33:05;;;;;;;12.82;3.65;;;;;;;;;;4985561;28;20239;-81
2023/09/08 07:35:32;;;;;;;35.50;7.25;;;;;;;;;;4972322;28;20236;-80
2023/09/08 07:37:59;;;;;;;14.38;3.92;;;;;;;;;;4985827;28;20233;-80
2023/09/08 07:40:26;;;;;;;13.82;3.58;;;;;;;;;;4979609;28;20232;-81
2023/09/08 07:42:52;;;;;;;15.13;3.58;;;;;;;;;;4972866;28;20239;-80
2023/09/08 07:45:19;;;;;;;20.65;5.30;;;;;;;;;;4978600;28;20235;-81
2023/09/08 07:47:45;;;;;;;55.00;9.55;;;;;;;;;;4957505;28;20694;-80
2023/09/08 07:50:20;;;;;;;15.70;3.80;;;;;;;;;;4966210;28;20247;-82
2023/09/08 07:52:48;;;;;;;61.63;11.27;;;;;;;;;;4975843;28;20660;-81
2023/09/08 07:55:15;;;;;;;13.75;3.72;;;;;;;;;;4982910;28;20232;-80
2023/09/08 07:57:42;;;;;;;62.45;11.70;;;;;;;;;;4959470;28;20232;-80
2023/09/08 08:00:12;;;;;;;18.63;4.22;;;;;;;;;;4977302;28;20610;-81
2023/09/08 08:02:41;;;;;;;63.85;12.18;;;;;;;;;;4961400;28;20253;-81
2023/09/08 08:05:08;;;;;;;12.13;3.20;;;;;;;;;;4979993;28;20260;-81
2023/09/08 08:07:35;;;;;;;62.10;12.82;;;;;;;;;;4975720;28;20224;-81
2023/09/08 08:10:03;;;;;;;15.05;4.00;;;;;;;;;;4976737;28;20228;-81
2023/09/08 08:12:30;;;;;;;26.92;6.90;;;;;;;;;;4974316;28;20235;-81
2023/09/08 08:14:58;;;;;;;15.18;4.00;;;;;;;;;;4965214;28;20239;-81
2023/09/08 08:17:27;;;;;;;19.17;4.82;;;;;;;;;;4970820;28;20237;-81
2023/09/08 08:19:54;;;;;;;13.82;3.90;;;;;;;;;;4962902;28;20323;-81
2023/09/08 08:22:21;;;;;;;26.73;6.47;;;;;;;;;;4973207;28;20259;-81
2023/09/08 08:24:48;;;;;;;41.67;7.63;;;;;;;;;;4973193;28;20250;-81
2023/09/08 08:27:15;;;;;;;13.05;3.88;;;;;;;;;;4968635;28;20264;-81
2023/09/08 08:29:41;;;;;;;50.63;9.60;;;;;;;;;;4966096;28;20229;-81
2023/09/08 08:32:09;;;;;;;13.27;4.05;;;;;;;;;;4964675;28;20232;-82
2023/09/08 08:34:35;;;;;;;54.88;11.25;;;;;;;;;;4971573;28;20331;-81
2023/09/08 08:37:03;;;;;;;10.55;3.28;;;;;;;;;;4980833;28;20241;-81
2023/09/08 08:39:29;;;;;;;26.02;6.15;;;;;;;;;;4977652;28;20233;-81
2023/09/08 08:41:56;;;;;;;14.10;3.45;;;;;;;;;;4974344;28;20297;-82
2023/09/08 08:44:23;;;;;;;41.67;9.82;;;;;;;;;;4981807;28;20353;-82
2023/09/08 08:46:50;;;;;;;16.90;4.32;;;;;;;;;;4950062;28;20250;-81
2023/09/08 08:49:18;;;;;;;10.23;2.80;;;;;;;;;;4970436;28;20228;-82
2023/09/08 08:51:45;;;;;;;71.03;13.88;;;;;;;;;;4969693;28;20259;-82
2023/09/08 08:54:13;;;;;;;19.08;5.43;;;;;;;;;;4977339;28;20274;-81
2023/09/08 08:56:40;;;;;;;63.40;11.82;;;;;;;;;;4965781;28;20279;-82
2023/09/08 08:59:07;;;;;;;24.30;5.80;;;;;;;;;;4976759;28;20592;-82
2023/09/08 09:01:35;;;;;;;42.35;7.97;;;;;;;;;;4969878;28;20248;-81
2023/09/08 09:04:04;;;;;;;13.20;3.63;;;;;;;;;;4982150;28;20232;-83
2023/09/08 09:06:31;;;;;;;31.02;6.68;;;;;;;;;;4974300;28;20240;-83
2023/09/08 09:08:59;;;;;;;10.13;2.63;;;;;;;;;;4973190;28;20243;-82
2023/09/08 09:11:26;;;;;;;17.60;4.55;;;;;;;;;;4983496;28;20311;-83
2023/09/08 09:13:53;;;;;;;17.63;4.65;;;;;;;;;;4981676;28;20228;-84
2023/09/08 09:16:21;;;;;;;15.18;4.22;;;;;;;;;;4980316;28;20250;-83
2023/09/08 09:18:59;;;;;;;71.95;14.30;;;;;;;;;;4980130;28;20240;-83
2023/09/08 09:21:41;;;;;;;17.52;4.45;;;;;;;;;;4977377;28;20235;-83
2023/09/08 09:24:13;;;;;;;20.52;5.10;;;;;;;;;;4969182;28;20725;-83
2023/09/08 09:26:39;;;;;;;71.65;14.40;;;;;;;;;;4962748;28;20246;-82
2023/09/08 09:29:13;;;;;;;18.83;4.80;;;;;;;;;;4982663;28;20283;-82
2023/09/08 09:31:53;;;;;;;64.15;11.77;;;;;;;;;;4981123;28;20725;-83
2023/09/08 09:34:20;;;;;;;18.48;4.50;;;;;;;;;;4971590;28;20293;-82
2023/09/08 09:36:49;;;;;;;61.03;11.70;;;;;;;;;;4973154;28;20234;-82
2023/09/08 09:39:18;;;;;;;24.13;7.10;;;;;;;;;;4977239;28;20347;-83
2023/09/08 09:41:46;;;;;;;60.38;11.02;;;;;;;;;;4975506;28;20228;-82
2023/09/08 09:44:13;;;;;;;25.75;6.35;;;;;;;;;;4972860;28;20236;-82
2023/09/08 09:46:43;;;;;;;65.10;13.55;;;;;;;;;;4977747;28;20231;-83
2023/09/08 09:49:12;;;;;;;19.55;5.05;;;;;;;;;;4980877;28;20235;-83
2023/09/08 09:51:42;;;;;;;66.10;11.88;;;;;;;;;;4961281;28;20291;-82
2023/09/08 09:54:09;;;;;;;13.52;3.63;;;;;;;;;;4979993;28;20238;-82
2023/09/08 09:56:37;;;;;;;54.25;9.45;;;;;;;;;;4980358;28;20254;-83
2023/09/08 09:59:04;;;;;;;18.15;4.65;;;;;;;;;;4978781;28;20242;-83
2023/09/08 10:01:32;;;;;;;24.98;5.65;;;;;;;;;;4966423;28;20221;-82
2023/09/08 10:03:59;;;;;;;16.83;4.70;;;;;;;;;;4984791;28;20227;-83
2023/09/08 10:06:26;;;;;;;21.98;5.15;;;;;;;;;;4974270;28;20240;-83
2023/09/08 10:08:54;;;;;;;12.50;3.53;;;;;;;;;;4971452;28;20238;-83
2023/09/08 10:11:21;;;;;;;17.60;4.07;;;;;;;;;;4982983;28;20260;-82
2023/09/08 10:13:50;;;;;;;42.63;8.50;;;;;;;;;;4976377;28;20236;-83
2023/09/08 10:16:19;;;;;;;16.50;4.25;;;;;;;;;;4973856;28;20769;-83
2023/09/08 10:18:47;;;;;;;49.60;9.80;;;;;;;;;;4973297;28;20263;-84
2023/09/08 10:21:16;;;;;;;11.18;3.33;;;;;;;;;;4978519;28;20230;-85
2023/09/08 10:23:44;;;;;;;69.40;13.45;;;;;;;;;;4967456;28;20234;-83
2023/09/08 10:26:11;;;;;;;14.82;4.03;;;;;;;;;;4982832;28;20227;-84
2023/09/08 10:28:38;;;;;;;55.58;10.43;;;;;;;;;;4983016;28;20259;-83
2023/09/08 10:31:06;;;;;;;14.75;4.00;;;;;;;;;;4972716;28;20310;-84
2023/09/08 10:33:34;;;;;;;37.05;8.40;;;;;;;;;;4966956;28;20229;-84
2023/09/08 10:36:03;;;;;;;11.50;3.50;;;;;;;;;;4967624;28;20231;-85
2023/09/08 10:38:31;;;;;;;30.73;5.57;;;;;;;;;;4981673;28;20271;-84
2023/09/08 10:41:17;;;;;;;9.52;2.70;;;;;;;;;;4978517;28;20232;-84
2023/09/08 10:43:44;;;;;;;41.58;7.85;;;;;;;;;;4972318;28;20243;-84
2023/09/08 10:46:20;;;;;;;11.98;3.47;;;;;;;;;;4982496;28;20282;-84
2023/09/08 10:48:47;;;;;;;58.72;14.07;;;;;;;;;;4977496;28;20576;-84
2023/09/08 10:51:14;;;;;;;13.55;3.50;;;;;;;;;;4981127;28;20223;-84
2023/09/08 10:53:41;;;;;;;68.50;14.77;;;;;;;;;;4974903;28;20232;-85
2023/09/08 10:56:08;;;;;;;18.38;4.53;;;;;;;;;;4976418;28;20231;-83
2023/09/08 10:58:48;;;;;;;56.83;10.80;;;;;;;;;;4947088;28;20370;-84
2023/09/08 11:01:26;;;;;;;12.13;3.53;;;;;;;;;;4971747;28;20646;-86
2023/09/08 11:03:53;;;;;;;14.32;3.83;;;;;;;;;;4973822;28;20246;-86
2023/09/08 11:06:30;;;;;;;20.42;4.93;;;;;;;;;;4964065;28;20236;-83
2023/09/08 11:09:05;;;;;;;19.75;6.47;;;;;;;;;;4966420;28;20246;-83
2023/09/08 11:11:33;;;;;;;40.25;8.63;;;;;;;;;;4966642;28;20616;-83
2023/09/08 11:13:59;;;;;;;11.32;3.17;;;;;;;;;;4975497;28;20238;-83
2023/09/08 11:16:31;;;;;;;27.85;7.07;;;;;;;;;;4961910;28;20230;-83
2023/09/08 11:18:58;;;;;;;20.70;4.68;;;;;;;;;;4965131;28;20260;-83
2023/09/08 11:21:25;;;;;;;22.50;4.95;;;;;;;;;;4979554;28;20235;-83
2023/09/08 11:23:51;;;;;;;21.52;5.10;;;;;;;;;;4980615;28;20263;-84
2023/09/08 11:26:18;;;;;;;18.83;4.28;;;;;;;;;;4974741;28;20240;-83
2023/09/08 11:28:47;;;;;;;52.58;9.57;;;;;;;;;;4972464;28;20235;-83
2023/09/08 11:31:14;;;;;;;9.95;2.80;;;;;;;;;;4979259;28;20227;-84
2023/09/08 11:33:41;;;;;;;63.45;11.68;;;;;;;;;;4967647;28;20262;-83
2023/09/08 11:36:14;;;;;;;12.40;3.25;;;;;;;;;;4973872;28;20225;-83
2023/09/08 11:38:42;;;;;;;52.75;10.65;;;;;;;;;;4975371;28;20230;-82
2023/09/08 11:41:09;;;;;;;20.45;5.25;;;;;;;;;;4963719;28;20232;-82
2023/09/08 11:43:36;;;;;;;51.53;10.55;;;;;;;;;;4976970;28;20272;-84
2023/09/08 11:46:03;;;;;;;14.63;3.88;;;;;;;;;;4978755;28;20668;-82
2023/09/08 11:48:31;;;;;;;26.35;5.75;;;;;;;;;;4972672;28;20228;-87
2023/09/08 11:50:58;;;;;;;13.63;3.50;;;;;;;;;;4954429;28;20236;-83
2023/09/08 11:53:25;;;;;;;22.73;4.95;;;;;;;;;;4971914;28;20235;-84
2023/09/08 11:55:51;;;;;;;16.23;5.22;;;;;;;;;;4948466;28;20233;-83
2023/09/08 11:58:19;;;;;;;24.88;7.60;;;;;;;;;;4964166;28;20231;-85
2023/09/08 12:00:49;;;;;;;66.97;12.52;;;;;;;;;;4948079;28;20236;-84
2023/09/08 12:03:16;;;;;;;10.15;2.92;;;;;;;;;;4969380;28;20239;-83
2023/09/08 12:05:51;;;;;;;38.65;7.95;;;;;;;;;;4968808;28;20228;-83
2023/09/08 12:08:18;;;;;;;23.88;7.18;;;;;;;;;;4976756;28;20227;-86
2023/09/08 12:10:45;;;;;;;53.17;9.77;;;;;;;;;;4969777;28;20234;-83
2023/09/08 12:13:13;;;;;;;11.25;3.00;;;;;;;;;;4971491;28;20259;-83
2023/09/08 12:15:41;;;;;;;75.85;15.57;;;;;;;;;;4972193;28;20242;-83
2023/09/08 12:18:08;;;;;;;15.88;3.78;;;;;;;;;;4975449;28;20266;-83
2023/09/08 12:20:36;;;;;;;68.10;17.27;;;;;;;;;;4966084;28;20285;-83
2023/09/08 12:23:04;;;;;;;12.00;3.20;;;;;;;;;;4974630;28;20235;-83
2023/09/08 12:25:31;;;;;;;21.23;5.45;;;;;;;;;;4975044;28;20232;-85
2023/09/08 12:27:59;;;;;;;15.82;4.70;;;;;;;;;;4978122;28;20267;-84
2023/09/08 12:30:32;;;;;;;20.80;6.30;;;;;;;;;;4981110;28;20243;-83
2023/09/08 12:32:59;;;;;;;12.05;3.17;;;;;;;;;;4969328;28;20262;-83
2023/09/08 12:35:26;;;;;;;18.50;4.50;;;;;;;;;;4972610;28;20243;-83
2023/09/08 12:38:01;;;;;;;13.10;3.40;;;;;;;;;;4973668;28;20297;-85
2023/09/08 12:40:30;;;;;;;20.45;4.57;;;;;;;;;;4975551;28;20232;-83
2023/09/08 12:43:00;;;;;;;16.85;4.10;;;;;;;;;;4967635;28;20295;-83
2023/09/08 12:45:39;;;;;;;49.50;10.25;;;;;;;;;;4959871;28;20234;-83
2023/09/08 12:48:07;;;;;;;14.18;3.53;;;;;;;;;;4974024;28;20237;-83
2023/09/08 12:50:34;;;;;;;44.50;8.90;;;;;;;;;;4962031;28;20239;-83
2023/09/08 12:53:00;;;;;;;12.13;3.20;;;;;;;;;;4971986;28;20236;-82
2023/09/08 12:55:27;;;;;;;19.80;4.90;;;;;;;;;;4968106;28;20227;-82
2023/09/08 12:57:57;;;;;;;20.60;8.90;;;;;;;;;;4970931;28;20239;-82
2023/09/08 13:00:24;;;;;;;25.52;5.90;;;;;;;;;;4965105;28;20682;-84
2023/09/08 13:02:51;;;;;;;14.35;4.15;;;;;;;;;;4952841;28;20237;-82
2023/09/08 13:05:18;;;;;;;14.50;3.42;;;;;;;;;;4979800;28;20227;-82
2023/09/08 13:07:45;;;;;;;41.72;7.97;;;;;;;;;;4962006;28;20232;-82
2023/09/08 13:10:12;;;;;;;11.65;3.17;;;;;;;;;;4973219;28;20314;-84
2023/09/08 13:12:39;;;;;;;56.38;11.10;;;;;;;;;;4954692;28;20231;-82
2023/09/08 13:15:06;;;;;;;15.15;3.95;;;;;;;;;;4975376;28;20307;-83
2023/09/08 13:17:33;;;;;;;34.25;7.43;;;;;;;;;;4970326;28;20246;-83
2023/09/08 13:20:01;;;;;;;10.18;2.95;;;;;;;;;;4977727;28;20236;-81
2023/09/08 13:22:28;;;;;;;17.00;4.63;;;;;;;;;;4964133;28;20263;-81
2023/09/08 13:24:56;;;;;;;11.18;3.15;;;;;;;;;;4979962;28;20236;-83
2023/09/08 13:27:23;;;;;;;19.30;5.45;;;;;;;;;;4979045;28;20243;-82
2023/09/08 13:29:49;;;;;;;33.33;6.45;;;;;;;;;;4972125;28;20239;-82
2023/09/08 13:32:16;;;;;;;12.30;3.53;;;;;;;;;;4970780;28;20315;-82
2023/09/08 13:34:43;;;;;;;33.28;6.60;;;;;;;;;;4982654;28;20679;-82
2023/09/08 13:37:10;;;;;;;16.08;4.60;;;;;;;;;;4955884;28;20249;-83
2023/09/08 13:39:37;;;;;;;53.40;10.55;;;;;;;;;;4964752;28;20255;-84
2023/09/08 13:42:04;;;;;;;11.48;3.30;;;;;;;;;;4983357;28;20236;-82
2023/09/08 13:44:30;;;;;;;26.55;5.97;;;;;;;;;;4959197;28;20240;-85
2023/09/08 13:46:57;;;;;;;11.57;3.42;;;;;;;;;;4988573;28;20247;-82
2023/09/08 13:49:26;;;;;;;13.65;3.85;;;;;;;;;;4982398;28;20231;-83
2023/09/08 13:51:55;;;;;;;21.00;5.22;;;;;;;;;;4971408;28;20514;-83
2023/09/08 13:54:23;;;;;;;32.03;13.40;;;;;;;;;;4980859;28;20248;-83
2023/09/08 13:56:59;;;;;;;14.70;5.13;;;;;;;;;;4972838;28;20244;-83
2023/09/08 13:59:28;;;;;;;16.73;3.97;;;;;;;;;;4981270;28;20235;-82
2023/09/08 14:02:03;;;;;;;12.77;3.60;;;;;;;;;;4962241;28;20680;-82
2023/09/08 14:04:50;;;;;;;38.60;7.35;;;;;;;;;;4964772;28;20239;-82
2023/09/08 14:07:19;;;;;;;12.07;2.80;;;;;;;;;;4964267;28;20228;-83
2023/09/08 14:09:49;;;;;;;57.17;11.27;;;;;;;;;;4973911;28;20232;-83
2023/09/08 14:12:21;;;;;;;22.33;7.68;;;;;;;;;;4991464;28;20234;-83
2023/09/08 14:14:49;;;;;;;54.53;10.75;;;;;;;;;;4980890;28;20239;-82
2023/09/08 14:17:16;;;;;;;9.38;2.50;;;;;;;;;;4986083;28;20246;-82
2023/09/08 14:19:43;;;;;;;46.17;8.98;;;;;;;;;;4966606;28;20249;-83
2023/09/08 14:22:10;;;;;;;14.30;3.47;;;;;;;;;;4980630;28;20224;-83
2023/09/08 14:24:37;;;;;;;59.40;12.88;;;;;;;;;;4973727;28;20290;-85
2023/09/08 14:27:04;;;;;;;11.63;3.25;;;;;;;;;;4985176;28;20283;-83
2023/09/08 14:29:33;;;;;;;23.77;5.60;;;;;;;;;;4964576;28;20229;-86
2023/09/08 14:31:59;;;;;;;13.27;3.40;;;;;;;;;;4974554;28;20592;-81